메인 페이지
METAR-TAF:

METAR-TAF

공항 :

쿠리치바, 파라나, 브라질

위도: 25-26S, 경도: 049-16W, 고도: 924m

현재 날씨관측

예보는 7 시간 41분 전, 01:00시(UTC)에 발표되었습니다.
북북서3kt북서풍과 풍을 오가는
온도 20°C
습도 94%
기압 1017 hPa
시정: 8000m
고도 800ft 상공 구름 조금
고도 10000ft 상공 구름 많음
약한비

METAR: SBBI 010100Z 34003KT 310V010 8000 -RA FEW008 BKN100 20/19 Q1017

시각: 06:41 (08:41 UTC)

예보

예보는 5 시간 41분 전, 03:00시(UTC)에 발표되었습니다.
예보 대상 시간: 01일 06시부터 01일 18시까지 (UTC)
6kt
시정 10km 이상
고도 800ft 상공 구름 보통
확률 30%
01일 06시부터 01일 10시까지 (UTC)
시정: 2000m
고도 300ft 상공 구름 많음
박무
전환 중
01일 13시부터 01일 15시까지 (UTC)
시정 10km 이상
고도 1800ft 상공 구름 보통

TAF: SBBI 010300Z 0106/0118 35006KT 9999 SCT008 TN18/0106Z TX25/0117Z PROB30 0106/0110 2000 BR BKN003 BECMG 0113/0115 9999 SCT018 RMK PFP

4,000개 이상의 공항 관측 자료 및 예보 (METAR 및 TAF 보고).

지도상에서 검색 가능한 기상관측소가 노란 점과 빨간 점으로 표시되어 있습니다.

기상관측소 명을 보려면 표시 위로 마우스를 이동하세요.

날씨 관측과 예보를 보려면 클릭하세요.

지도 변경 : 확대하려면 엑스 표시가 있는 녹색 버튼, 축소하려면 빼기 표시가 있는 녹색 버튼, 다음 페이지의 지도를 보려면 녹색 화살표를 클릭하세요.


METAR-TAF: